Time;durP1;ratioP1;P1;durP2;ratioP2;P2;SDS_P1;SDS_P2;PMS_P1;PMS_P2;Temp;Humidity;BMP_temperature;BMP_pressure;BME280_temperature;BME280_humidity;BME280_pressure;Samples;Min_cycle;Max_cycle;Signal;HPM_P1;HPM_P2
2022/10/14 00:01:55;;;;;;;7.95;6.15;;;;;;;12.20;100.00;101062.53;6063426;23;20038;-71
2022/10/14 00:04:22;;;;;;;6.70;6.20;;;;;;;11.93;100.00;101020.13;6038840;23;20106;-71
2022/10/14 00:06:48;;;;;;;9.65;6.65;;;;;;;12.12;100.00;101064.72;6061013;23;20074;-71
2022/10/14 00:09:15;;;;;;;10.75;6.70;;;;;;;12.12;100.00;101062.94;6077588;23;20453;-70
2022/10/14 00:11:41;;;;;;;6.95;6.50;;;;;;;12.11;100.00;101057.78;6043630;23;20042;-71
2022/10/14 00:14:13;;;;;;;6.45;5.95;;;;;;;12.15;100.00;101054.88;6074199;23;20084;-71
2022/10/14 00:16:42;;;;;;;7.40;6.55;;;;;;;12.13;100.00;101050.66;6074060;23;20026;-71
2022/10/14 00:19:09;;;;;;;6.13;5.72;;;;;;;12.17;100.00;101052.19;6063838;23;20007;-71
2022/10/14 00:21:38;;;;;;;6.65;6.15;;;;;;;11.77;100.00;100994.59;6063500;23;20081;-72
2022/10/14 00:24:04;;;;;;;7.10;6.60;;;;;;;11.40;100.00;100924.69;6069251;23;20456;-70
2022/10/14 00:26:34;;;;;;;6.75;6.32;;;;;;;11.82;100.00;100999.59;6038528;23;20034;-70
2022/10/14 00:29:03;;;;;;;6.72;6.22;;;;;;;12.02;100.00;101038.03;6078335;23;20081;-71
2022/10/14 00:31:30;;;;;;;6.90;6.30;;;;;;;11.56;100.00;100979.94;6048127;23;20062;-70
2022/10/14 00:33:57;;;;;;;8.18;7.57;;;;;;;11.96;100.00;101033.09;5991911;23;20031;-71
2022/10/14 00:36:24;;;;;;;10.18;6.47;;;;;;;12.09;100.00;101049.13;6074969;23;20030;-71
2022/10/14 00:38:52;;;;;;;6.97;6.40;;;;;;;11.89;100.00;101022.06;6060179;23;20025;-71
2022/10/14 00:41:20;;;;;;;7.82;7.13;;;;;;;11.76;100.00;100994.69;6060956;23;20026;-71
2022/10/14 00:44:14;;;;;;;8.10;7.30;;;;;;;12.09;100.00;101043.84;6069953;23;20031;-71
2022/10/14 00:46:42;;;;;;;6.47;6.05;;;;;;;11.74;100.00;100999.16;6047003;23;20476;-72
2022/10/14 00:49:24;;;;;;;7.18;6.50;;;;;;;12.11;100.00;101048.09;6068689;23;20555;-71
2022/10/14 00:51:54;;;;;;;7.07;6.47;;;;;;;11.67;100.00;100982.88;6042560;23;20381;-71
2022/10/14 00:54:24;;;;;;;7.20;6.70;;;;;;;11.70;100.00;100987.13;6069751;23;20022;-71
2022/10/14 00:56:51;;;;;;;8.35;7.65;;;;;;;12.10;100.00;101042.91;6020895;23;20688;-71
2022/10/14 00:59:18;;;;;;;7.63;6.68;;;;;;;12.05;100.00;101043.16;6068987;23;20521;-71
2022/10/14 01:01:44;;;;;;;6.75;6.25;;;;;;;11.17;100.00;100897.00;6024263;23;20577;-71
2022/10/14 01:04:10;;;;;;;6.70;6.20;;;;;;;12.07;100.00;101038.66;6068097;23;20034;-72
2022/10/14 01:06:59;;;;;;;6.18;5.78;;;;;;;12.06;100.00;101044.84;6051138;23;20010;-72
2022/10/14 01:09:34;;;;;;;7.38;6.65;;;;;;;12.07;100.00;101037.81;6050363;23;20088;-71
2022/10/14 01:12:24;;;;;;;8.55;6.90;;;;;;;12.07;100.00;101041.28;6049869;23;20085;-71
2022/10/14 01:15:17;;;;;;;8.00;7.25;;;;;;;12.07;100.00;101040.47;6024400;23;20524;-71
2022/10/14 01:17:59;;;;;;;6.95;6.38;;;;;;;11.94;100.00;101027.94;6058614;23;20643;-72
2022/10/14 01:20:41;;;;;;;7.05;6.55;;;;;;;12.04;100.00;101033.56;6045747;23;20030;-71
2022/10/14 01:23:36;;;;;;;7.72;7.00;;;;;;;11.94;100.00;101006.88;6070284;23;20014;-71
2022/10/14 01:26:20;;;;;;;8.00;6.05;;;;;;;12.04;100.00;101022.19;6039410;23;20085;-71
2022/10/14 01:29:33;;;;;;;7.15;6.65;;;;;;;12.04;100.00;101015.13;6049363;23;20022;-71
2022/10/14 01:32:05;;;;;;;6.80;6.32;;;;;;;12.04;100.00;101004.63;6008454;23;20022;-73
2022/10/14 01:34:40;;;;;;;8.93;7.97;;;;;;;12.08;100.00;101007.94;6051537;23;20026;-71
2022/10/14 01:37:12;;;;;;;7.93;7.28;;;;;;;12.07;100.00;101003.63;6024186;23;20031;-71
2022/10/14 01:39:48;;;;;;;8.35;7.53;;;;;;;11.74;100.00;100938.69;6063261;23;20440;-71
2022/10/14 01:42:37;;;;;;;12.23;6.85;;;;;;;12.06;100.00;100980.88;6063128;23;20077;-71
2022/10/14 01:45:14;;;;;;;7.70;7.00;;;;;;;11.86;100.00;100950.34;6042590;23;20026;-71
2022/10/14 01:47:41;;;;;;;8.63;7.82;;;;;;;11.77;100.00;100951.69;6062724;23;20010;-71
2022/10/14 01:50:13;;;;;;;8.35;7.22;;;;;;;12.03;100.00;100974.00;6041168;23;20052;-70
2022/10/14 01:52:59;;;;;;;8.27;7.60;;;;;;;11.65;100.00;100915.53;6063659;23;20014;-71
2022/10/14 01:55:29;;;;;;;8.95;8.15;;;;;;;12.05;100.00;100972.13;6019282;23;20026;-71
2022/10/14 01:57:57;;;;;;;6.82;6.22;;;;;;;11.93;100.00;100963.13;6071023;23;20010;-72
2022/10/14 02:00:24;;;;;;;7.30;6.68;;;;;;;11.61;100.00;100896.44;6068623;23;20026;-72
2022/10/14 02:02:50;;;;;;;7.63;6.88;;;;;;;11.75;100.00;100929.88;6047112;23;20021;-71
2022/10/14 02:05:20;;;;;;;7.28;6.68;;;;;;;12.10;100.00;100979.78;6078601;23;20030;-71
2022/10/14 02:07:54;;;;;;;7.13;6.53;;;;;;;11.78;100.00;100920.03;6076220;23;20479;-71
2022/10/14 02:10:48;;;;;;;7.05;6.47;;;;;;;12.01;100.00;100948.69;6079919;23;20060;-71
2022/10/14 02:13:30;;;;;;;7.22;6.55;;;;;;;12.07;100.00;100966.78;6030296;23;20082;-71
2022/10/14 02:16:21;;;;;;;11.73;7.15;;;;;;;12.05;100.00;100963.41;6061788;23;20009;-71
2022/10/14 02:18:51;;;;;;;8.75;7.28;;;;;;;11.45;100.00;100864.03;6072822;23;20159;-72
2022/10/14 02:21:24;;;;;;;7.38;6.88;;;;;;;12.02;100.00;100953.03;6067714;23;20068;-71
2022/10/14 02:23:57;;;;;;;7.78;7.18;;;;;;;12.02;100.00;100953.88;6063629;23;20495;-71
2022/10/14 02:26:25;;;;;;;8.18;7.45;;;;;;;12.01;100.00;100951.31;6079212;23;20092;-72
2022/10/14 02:28:54;;;;;;;7.63;6.55;;;;;;;11.90;100.00;100926.44;6056463;23;20099;-72
2022/10/14 02:31:21;;;;;;;8.35;7.18;;;;;;;12.00;100.00;100950.47;6077357;23;20026;-71
2022/10/14 02:33:54;;;;;;;8.40;7.60;;;;;;;11.95;100.00;100937.59;6044816;23;20084;-71
2022/10/14 02:36:24;;;;;;;8.48;7.63;;;;;;;12.00;100.00;100945.22;6063206;23;20096;-71
2022/10/14 02:38:53;;;;;;;7.53;6.82;;;;;;;12.02;100.00;100945.97;6048701;23;20076;-71
2022/10/14 02:41:23;;;;;;;8.90;8.05;;;;;;;11.60;100.00;100876.34;6068797;23;20134;-71
2022/10/14 02:43:50;;;;;;;10.52;6.95;;;;;;;11.58;100.00;100860.63;6067898;23;20029;-72
2022/10/14 02:46:20;;;;;;;7.78;7.07;;;;;;;11.88;100.00;100924.81;6038734;23;20464;-71
2022/10/14 02:48:47;;;;;;;9.85;7.60;;;;;;;12.04;100.00;100940.63;6070465;23;20249;-71
2022/10/14 02:51:13;;;;;;;8.07;7.28;;;;;;;11.70;100.00;100872.28;6046370;23;20084;-72
2022/10/14 02:53:39;;;;;;;8.85;7.90;;;;;;;11.91;100.00;100901.03;6055946;23;20042;-72
2022/10/14 02:56:06;;;;;;;8.60;7.80;;;;;;;12.05;100.00;100922.16;6047430;23;20026;-71
2022/10/14 02:58:33;;;;;;;6.78;6.28;;;;;;;12.04;100.00;100920.44;6068375;23;20514;-71
2022/10/14 03:00:59;;;;;;;7.32;6.72;;;;;;;12.00;100.00;100918.91;6066597;23;20017;-71
2022/10/14 03:03:25;;;;;;;8.07;7.30;;;;;;;11.57;100.00;100848.44;6043816;23;20034;-71
2022/10/14 03:05:52;;;;;;;7.50;6.93;;;;;;;11.67;100.00;100868.97;6063219;23;20025;-71
2022/10/14 03:08:18;;;;;;;7.35;6.75;;;;;;;11.57;100.00;100860.75;6054946;23;20037;-71
2022/10/14 03:10:46;;;;;;;7.53;6.93;;;;;;;12.00;100.00;100911.03;6044529;23;20018;-72
2022/10/14 03:13:14;;;;;;;6.80;6.20;;;;;;;11.96;100.00;100907.69;6046872;23;20105;-71
2022/10/14 03:15:41;;;;;;;6.78;6.32;;;;;;;12.01;100.00;100907.47;6073219;23;20536;-71
2022/10/14 03:18:07;;;;;;;8.10;6.18;;;;;;;12.03;100.00;100912.63;6071390;23;20026;-71
2022/10/14 03:20:34;;;;;;;8.80;7.40;;;;;;;12.03;100.00;100910.88;6071226;23;20011;-71
2022/10/14 03:23:03;;;;;;;7.35;6.72;;;;;;;12.05;100.00;100906.38;6053152;23;20576;-70
2022/10/14 03:25:29;;;;;;;8.25;7.45;;;;;;;10.85;100.00;100706.97;6072132;23;20065;-70
2022/10/14 03:27:56;;;;;;;8.45;7.65;;;;;;;11.96;100.00;100886.66;6076653;23;20077;-70
2022/10/14 03:30:22;;;;;;;7.88;7.13;;;;;;;11.89;100.00;100869.53;6048540;23;20038;-71
2022/10/14 03:32:48;;;;;;;7.50;6.90;;;;;;;11.56;100.00;100820.44;6072750;23;20038;-71
2022/10/14 03:35:15;;;;;;;7.78;7.03;;;;;;;11.78;100.00;100850.81;6038095;23;20041;-70
2022/10/14 03:37:41;;;;;;;8.30;6.55;;;;;;;11.93;100.00;100878.97;6082499;23;20026;-70
2022/10/14 03:40:08;;;;;;;6.75;6.28;;;;;;;11.87;100.00;100866.13;6054919;23;20029;-71
2022/10/14 03:42:35;;;;;;;9.15;7.05;;;;;;;12.09;100.00;100886.00;6045747;23;20018;-70
2022/10/14 03:45:03;;;;;;;9.65;7.45;;;;;;;11.89;100.00;100869.53;6030886;23;20023;-70
2022/10/14 03:47:29;;;;;;;13.65;8.07;;;;;;;11.94;100.00;100861.38;6039134;23;20030;-70
2022/10/14 03:49:56;;;;;;;8.52;7.72;;;;;;;12.11;100.00;100886.78;6068469;23;20535;-70
2022/10/14 03:52:22;;;;;;;7.72;7.07;;;;;;;11.87;100.00;100849.50;6076681;23;20034;-71
2022/10/14 03:54:49;;;;;;;7.35;6.75;;;;;;;12.10;100.00;100890.31;6072460;23;20038;-71
2022/10/14 03:57:15;;;;;;;7.28;6.63;;;;;;;11.79;100.00;100839.41;6076130;23;20069;-71
2022/10/14 03:59:41;;;;;;;6.93;6.32;;;;;;;11.76;100.00;100834.28;6037350;23;20023;-71
2022/10/14 04:02:08;;;;;;;7.25;6.50;;;;;;;11.83;100.00;100848.81;6063352;23;20671;-71
2022/10/14 04:04:34;;;;;;;7.15;6.53;;;;;;;11.89;100.00;100864.28;6080129;23;20025;-71
2022/10/14 04:07:00;;;;;;;8.63;6.97;;;;;;;12.01;100.00;100878.53;6066624;23;20480;-71
2022/10/14 04:09:28;;;;;;;7.38;6.75;;;;;;;11.57;100.00;100798.50;6053138;23;20621;-71
2022/10/14 04:11:56;;;;;;;7.53;6.55;;;;;;;12.06;100.00;100886.16;6075421;23;20048;-71
2022/10/14 04:14:24;;;;;;;8.10;7.30;;;;;;;11.89;100.00;100866.91;6063227;23;20109;-70
2022/10/14 04:16:50;;;;;;;6.43;5.80;;;;;;;12.00;100.00;100892.59;6050151;23;20229;-71
2022/10/14 04:19:17;;;;;;;8.05;6.88;;;;;;;11.56;100.00;100820.44;6041702;23;20049;-70
2022/10/14 04:21:44;;;;;;;7.40;6.63;;;;;;;11.96;100.00;100885.81;6073537;23;20091;-70
2022/10/14 04:24:11;;;;;;;8.18;7.13;;;;;;;11.95;100.00;100868.34;6046326;23;20022;-70
2022/10/14 04:26:38;;;;;;;8.73;7.78;;;;;;;11.58;100.00;100804.59;6067673;23;20022;-70
2022/10/14 04:29:04;;;;;;;8.15;7.38;;;;;;;11.49;100.00;100799.84;6039696;23;20030;-71
2022/10/14 04:31:30;;;;;;;8.65;7.88;;;;;;;11.83;100.00;100861.13;6068426;23;20614;-70
2022/10/14 04:33:57;;;;;;;7.88;7.28;;;;;;;11.99;100.00;100880.41;6043261;23;20094;-70
2022/10/14 04:36:23;;;;;;;7.25;6.63;;;;;;;11.81;100.00;100855.06;6078492;23;20595;-70
2022/10/14 04:38:49;;;;;;;6.82;6.10;;;;;;;11.59;100.00;100816.81;6059213;23;20643;-69
2022/10/14 04:41:15;;;;;;;7.35;6.65;;;;;;;11.96;100.00;100878.78;6067248;23;20076;-70
2022/10/14 04:43:42;;;;;;;7.43;6.80;;;;;;;11.97;100.00;100863.88;6048330;23;20018;-70
2022/10/14 04:46:08;;;;;;;6.68;6.07;;;;;;;11.98;100.00;100870.81;6042247;23;20026;-71
2022/10/14 04:48:34;;;;;;;6.88;6.38;;;;;;;11.99;100.00;100864.63;6067402;23;20096;-70
2022/10/14 04:51:01;;;;;;;6.20;5.80;;;;;;;12.00;100.00;100865.47;6073965;23;20096;-70
2022/10/14 04:53:27;;;;;;;7.28;6.60;;;;;;;11.99;100.00;100856.72;6051953;23;20701;-70
2022/10/14 04:55:54;;;;;;;6.55;6.05;;;;;;;12.02;100.00;100856.53;6033910;23;20519;-70
2022/10/14 04:58:20;;;;;;;7.55;6.10;;;;;;;12.05;100.00;100839.75;6035772;23;20083;-70
2022/10/14 05:00:46;;;;;;;7.43;6.80;;;;;;;11.91;100.00;100836.13;6068100;23;20095;-70
2022/10/14 05:03:16;;;;;;;6.82;6.28;;;;;;;12.01;100.00;100851.38;6039633;23;20014;-70
2022/10/14 05:05:42;;;;;;;6.47;5.90;;;;;;;11.02;100.00;100711.31;6076115;23;20014;-70
2022/10/14 05:08:08;;;;;;;6.78;6.28;;;;;;;11.83;100.00;100808.53;6033440;23;20034;-70
2022/10/14 05:10:35;;;;;;;6.28;5.78;;;;;;;12.00;100.00;100832.09;6048547;23;20022;-70
2022/10/14 05:13:02;;;;;;;6.20;5.78;;;;;;;11.99;100.00;100833.06;6070229;23;20226;-70
2022/10/14 05:15:28;;;;;;;6.03;5.63;;;;;;;12.01;100.00;100825.06;6073373;23;20029;-71
2022/10/14 05:17:55;;;;;;;6.65;6.10;;;;;;;11.89;100.00;100800.31;6034707;23;20027;-70
2022/10/14 05:20:21;;;;;;;6.88;6.18;;;;;;;12.00;100.00;100812.84;6067837;23;20574;-71
2022/10/14 05:22:48;;;;;;;12.73;5.97;;;;;;;11.22;100.00;100686.59;6069730;23;20578;-71
2022/10/14 05:25:14;;;;;;;7.32;6.65;;;;;;;11.81;100.00;100781.44;6061108;23;20052;-71
2022/10/14 05:27:41;;;;;;;6.22;5.75;;;;;;;12.06;100.00;100812.50;6085296;23;20021;-71
2022/10/14 05:30:08;;;;;;;6.65;6.15;;;;;;;11.58;100.00;100738.88;6071614;23;20519;-71
2022/10/14 05:32:35;;;;;;;6.07;5.68;;;;;;;11.92;100.00;100797.50;6074139;23;20388;-69
2022/10/14 05:35:01;;;;;;;6.03;5.50;;;;;;;11.99;100.00;100827.81;6049433;23;20010;-70
2022/10/14 05:37:28;;;;;;;6.82;6.28;;;;;;;11.57;100.00;100751.19;6079794;23;20102;-70
2022/10/14 05:39:54;;;;;;;5.75;5.35;;;;;;;12.03;100.00;100820.56;6014105;23;20024;-70
2022/10/14 05:42:21;;;;;;;6.85;6.18;;;;;;;12.02;100.00;100817.09;6067849;23;20084;-71
2022/10/14 05:44:48;;;;;;;6.93;6.32;;;;;;;12.00;100.00;100810.22;6046177;23;20535;-70
2022/10/14 05:47:14;;;;;;;6.35;5.95;;;;;;;12.06;100.00;100815.97;6069817;23;20101;-70
2022/10/14 05:49:40;;;;;;;7.00;6.28;;;;;;;11.12;100.00;100657.34;6045155;23;20014;-70
2022/10/14 05:52:07;;;;;;;7.00;6.40;;;;;;;11.80;100.00;100770.09;6064302;23;20623;-70
2022/10/14 05:54:33;;;;;;;7.35;6.57;;;;;;;11.71;100.00;100749.56;6080873;23;20087;-70
2022/10/14 05:57:00;;;;;;;6.65;6.13;;;;;;;11.71;100.00;100749.56;6069265;23;20023;-70
2022/10/14 05:59:28;;;;;;;6.38;5.72;;;;;;;11.95;100.00;100779.78;6046606;23;20079;-70
2022/10/14 06:01:56;;;;;;;6.05;5.55;;;;;;;12.08;100.00;100795.69;6068153;23;20034;-70
2022/10/14 06:04:22;;;;;;;6.72;6.13;;;;;;;12.01;100.00;100775.09;6037257;23;20096;-70
2022/10/14 06:06:49;;;;;;;6.47;6.07;;;;;;;11.26;100.00;100651.34;6049369;23;20026;-71
2022/10/14 06:09:18;;;;;;;7.05;6.22;;;;;;;10.63;100.00;100566.38;6080616;23;20018;-71
2022/10/14 06:11:44;;;;;;;6.63;6.05;;;;;;;12.12;100.00;100789.31;6044317;23;20022;-70
2022/10/14 06:14:11;;;;;;;5.88;5.47;;;;;;;11.51;100.00;100696.34;6065579;23;20018;-72
2022/10/14 06:16:37;;;;;;;6.10;5.70;;;;;;;12.16;100.00;100782.09;6069328;23;20075;-70
2022/10/14 06:19:04;;;;;;;5.90;5.47;;;;;;;12.00;100.00;100766.34;6045330;23;20026;-70
2022/10/14 06:21:30;;;;;;;6.43;5.90;;;;;;;12.17;100.00;100791.72;6038104;23;20022;-71
2022/10/14 06:23:56;;;;;;;6.13;5.68;;;;;;;12.19;100.00;100781.94;6005972;23;20038;-69
2022/10/14 06:26:23;;;;;;;6.07;5.70;;;;;;;12.22;100.00;100792.28;6071954;23;20071;-70
2022/10/14 06:28:49;;;;;;;6.50;5.90;;;;;;;12.11;100.00;100771.03;6052378;23;20034;-70
2022/10/14 06:31:16;;;;;;;8.55;5.68;;;;;;;12.11;100.00;100769.22;6076203;23;20020;-70
2022/10/14 06:33:42;;;;;;;6.50;6.10;;;;;;;12.28;100.00;100789.28;6047939;23;20326;-70
2022/10/14 06:36:09;;;;;;;5.40;5.10;;;;;;;12.32;100.00;100785.53;6039030;23;20037;-71
2022/10/14 06:38:36;;;;;;;5.85;5.53;;;;;;;12.25;100.00;100771.06;6022135;23;20812;-70
2022/10/14 06:41:02;;;;;;;5.75;5.35;;;;;;;12.11;100.00;100739.44;6032478;23;20030;-71
2022/10/14 06:43:28;;;;;;;6.13;5.72;;;;;;;12.36;100.00;100780.97;6062815;23;20090;-70
2022/10/14 06:45:58;;;;;;;6.50;5.97;;;;;;;12.07;100.00;100735.31;6069005;23;20791;-70
2022/10/14 06:48:25;;;;;;;5.88;5.40;;;;;;;12.42;100.00;100772.69;6039952;23;20042;-70
2022/10/14 06:50:51;;;;;;;6.70;6.10;;;;;;;12.46;100.00;100778.63;6012751;23;20026;-71
2022/10/14 06:53:18;;;;;;;5.82;5.43;;;;;;;12.50;100.00;100777.53;6072070;23;20025;-70
2022/10/14 06:55:44;;;;;;;7.07;6.32;;;;;;;12.17;100.00;100725.94;6062398;23;20010;-71
2022/10/14 06:58:13;;;;;;;5.80;5.50;;;;;;;12.35;100.00;100756.44;6015993;23;20010;-71
2022/10/14 07:00:41;;;;;;;5.85;5.45;;;;;;;12.57;100.00;100784.13;6071705;23;20096;-70
2022/10/14 07:03:13;;;;;;;5.55;5.25;;;;;;;12.53;100.00;100778.19;6007979;23;20069;-71
2022/10/14 07:05:40;;;;;;;5.63;5.28;;;;;;;12.31;100.00;100749.66;6018999;23;20547;-71
2022/10/14 07:08:06;;;;;;;6.22;5.82;;;;;;;12.41;100.00;100757.84;6057425;23;20080;-71
2022/10/14 07:10:36;;;;;;;6.05;5.55;;;;;;;12.32;100.00;100748.69;6027965;23;20687;-70
2022/10/14 07:13:03;;;;;;;6.13;5.53;;;;;;;12.08;100.00;100697.53;6028379;23;20026;-69
2022/10/14 07:15:29;;;;;;;6.22;5.82;;;;;;;12.26;100.00;100722.75;6056521;23;20015;-70
2022/10/14 07:18:02;;;;;;;5.63;5.32;;;;;;;12.66;100.00;100762.50;6051009;23;20862;-70
2022/10/14 07:20:29;;;;;;;5.78;5.38;;;;;;;12.29;100.00;100711.22;6058392;23;20072;-70
2022/10/14 07:22:55;;;;;;;5.68;5.30;;;;;;;12.36;100.00;100720.44;6058526;23;20042;-70
2022/10/14 07:25:22;;;;;;;5.78;5.38;;;;;;;12.56;100.00;100732.41;6031207;23;20285;-70
2022/10/14 07:27:51;;;;;;;6.05;5.65;;;;;;;12.54;100.00;100724.59;6048456;23;20030;-71
2022/10/14 07:30:17;;;;;;;7.30;6.60;;;;;;;12.42;100.00;100696.38;6000486;23;20061;-71
2022/10/14 07:32:44;;;;;;;5.68;5.28;;;;;;;12.53;100.00;100712.38;6002851;23;20046;-71
2022/10/14 07:35:10;;;;;;;6.43;6.03;;;;;;;12.28;100.00;100677.94;6001423;23;20023;-71
2022/10/14 07:37:37;;;;;;;6.10;5.70;;;;;;;12.77;100.00;100761.88;6039250;23;20026;-70
2022/10/14 07:40:04;;;;;;;6.13;5.72;;;;;;;12.74;100.00;100756.78;6012085;23;20101;-70
2022/10/14 07:42:30;;;;;;;6.35;5.95;;;;;;;12.76;100.00;100761.00;6049933;23;20038;-70
2022/10/14 07:44:59;;;;;;;5.47;5.18;;;;;;;12.75;100.00;100755.84;6015790;23;20022;-72
2022/10/14 07:47:25;;;;;;;6.13;5.70;;;;;;;12.75;100.00;100738.25;6051023;23;20019;-70
2022/10/14 07:49:52;;;;;;;5.93;5.53;;;;;;;12.85;100.00;100745.59;5985480;23;20022;-71
2022/10/14 07:52:19;;;;;;;5.57;5.18;;;;;;;12.99;100.00;100756.16;6011166;23;20027;-71
2022/10/14 07:54:45;;;;;;;6.13;5.72;;;;;;;13.03;100.00;100749.75;6010033;23;20019;-70
2022/10/14 07:57:12;;;;;;;7.07;6.60;;;;;;;13.00;100.00;100744.66;6012729;23;20094;-70
2022/10/14 07:59:38;;;;;;;6.03;5.47;;;;;;;13.09;100.00;100765.19;6041541;23;20019;-71
2022/10/14 08:02:06;;;;;;;6.43;5.95;;;;;;;12.82;100.00;100708.91;6011125;23;20023;-70
2022/10/14 08:04:33;;;;;;;6.85;6.40;;;;;;;13.21;100.00;100762.69;6012972;23;20023;-71
2022/10/14 08:07:00;;;;;;;5.72;5.40;;;;;;;13.30;100.00;100755.09;6010440;23;20124;-70
2022/10/14 08:09:26;;;;;;;6.18;5.78;;;;;;;13.05;100.00;100728.56;6039793;23;20027;-70
2022/10/14 08:11:57;;;;;;;6.40;5.80;;;;;;;13.14;100.00;100736.72;6007775;23;20027;-71
2022/10/14 08:14:24;;;;;;;5.68;5.38;;;;;;;13.22;100.00;100752.06;6040031;23;20090;-72
2022/10/14 08:16:50;;;;;;;6.38;5.95;;;;;;;12.80;100.00;100684.47;5992673;23;20034;-72
2022/10/14 08:19:16;;;;;;;6.40;6.03;;;;;;;13.25;100.00;100740.47;6006077;23;20019;-70
2022/10/14 08:21:45;;;;;;;6.72;6.13;;;;;;;13.24;100.00;100728.25;6019382;23;20038;-70
2022/10/14 08:24:11;;;;;;;7.53;6.80;;;;;;;13.37;100.00;100750.31;6043165;23;20033;-70
2022/10/14 08:26:50;;;;;;;6.82;6.28;;;;;;;13.27;100.00;100725.41;6037019;23;20039;-70
2022/10/14 08:29:17;;;;;;;11.88;6.47;;;;;;;13.27;100.00;100702.56;6073704;23;20022;-71
2022/10/14 08:31:43;;;;;;;7.57;6.55;;;;;;;13.54;100.00;100742.16;6067260;23;20026;-71
2022/10/14 08:34:10;;;;;;;7.70;7.20;;;;;;;13.53;100.00;100715.88;6017157;23;20046;-70
2022/10/14 08:36:36;;;;;;;5.78;5.35;;;;;;;13.73;100.00;100730.41;6071410;23;20024;-70
2022/10/14 08:39:04;;;;;;;7.30;6.70;;;;;;;13.50;100.00;100666.84;6028110;23;20030;-72
2022/10/14 08:42:06;;;;;;;6.80;6.30;;;;;;;13.77;100.00;100727.50;6050893;23;20018;-71
2022/10/14 08:44:46;;;;;;;6.35;5.85;;;;;;;13.79;100.00;100721.25;6034308;23;20548;-70
2022/10/14 08:47:21;;;;;;;6.57;5.97;;;;;;;13.50;100.00;100672.13;6059115;23;20083;-69
2022/10/14 08:49:58;;;;;;;7.40;6.78;;;;;;;13.54;100.00;100656.94;6037178;23;20010;-70
2022/10/14 08:52:49;;;;;;;6.80;6.30;;;;;;;13.91;100.00;100710.78;6031200;23;20007;-70
2022/10/14 08:55:28;;;;;;;5.85;5.55;;;;;;;13.45;100.00;100644.34;6055135;23;20022;-70
2022/10/14 08:58:20;;;;;;;7.35;6.75;;;;;;;14.00;100.00;100716.38;6062332;23;20080;-70
2022/10/14 09:00:50;;;;;;;7.20;6.57;;;;;;;13.63;100.00;100666.03;5981075;23;20109;-70
2022/10/14 09:03:32;;;;;;;6.40;5.95;;;;;;;13.96;100.00;100697.28;6070115;23;20021;-70
2022/10/14 09:06:02;;;;;;;5.95;5.55;;;;;;;14.14;100.00;100709.22;6066928;23;20056;-70
2022/10/14 09:08:41;;;;;;;7.40;6.70;;;;;;;14.22;100.00;100707.88;6060442;23;20027;-70
2022/10/14 09:11:19;;;;;;;6.65;6.15;;;;;;;14.21;100.00;100704.38;6036877;23;20022;-71
2022/10/14 09:13:52;;;;;;;6.90;6.30;;;;;;;14.24;100.00;100706.00;6072792;23;20087;-71
2022/10/14 09:16:21;;;;;;;6.57;6.18;;;;;;;12.42;100.00;100417.41;6067001;23;20148;-71
2022/10/14 09:18:54;;;;;;;6.90;6.38;;;;;;;14.25;100.00;100695.34;6069903;23;20696;-71
2022/10/14 09:21:34;;;;;;;6.13;5.82;;;;;;;14.20;100.00;100686.03;6043592;23;20429;-71
2022/10/14 09:24:36;;;;;;;6.35;5.95;;;;;;;14.29;100.00;100682.75;6061470;23;20029;-71
2022/10/14 09:27:04;;;;;;;7.10;6.40;;;;;;;14.12;100.00;100647.78;6064442;23;20704;-69
2022/10/14 09:29:41;;;;;;;6.40;6.00;;;;;;;14.27;100.00;100650.31;6047354;23;20026;-70
2022/10/14 09:32:19;;;;;;;6.47;5.97;;;;;;;14.49;100.00;100682.25;6069147;23;20037;-70
2022/10/14 09:34:51;;;;;;;7.35;6.75;;;;;;;11.76;100.00;100275.13;6073985;23;20081;-71
2022/10/14 09:37:23;;;;;;;6.32;5.93;;;;;;;14.52;100.00;100687.31;6035520;23;20015;-71
2022/10/14 09:39:53;;;;;;;6.88;6.00;;;;;;;14.58;100.00;100691.34;6039196;23;20033;-71
2022/10/14 09:42:24;;;;;;;6.97;6.47;;;;;;;14.44;100.00;100651.81;6066289;23;20081;-71
2022/10/14 09:45:14;;;;;;;6.78;6.32;;;;;;;14.75;100.00;100687.53;6067896;23;20084;-71
2022/10/14 09:47:48;;;;;;;6.72;6.18;;;;;;;14.27;100.00;100614.25;6036203;23;20021;-71
2022/10/14 09:50:35;;;;;;;6.70;6.00;;;;;;;14.61;100.00;100680.56;6062140;23;20014;-71
2022/10/14 09:53:06;;;;;;;5.75;5.45;;;;;;;14.14;100.00;100579.06;6039938;23;20080;-71
2022/10/14 09:55:45;;;;;;;6.72;6.22;;;;;;;14.72;100.00;100667.47;6061478;23;20019;-71
2022/10/14 09:58:21;;;;;;;8.57;6.53;;;;;;;14.51;100.00;100616.09;6059080;23;20021;-71
2022/10/14 10:00:55;;;;;;;6.97;6.40;;;;;;;14.94;100.00;100671.25;6074044;23;20032;-71
2022/10/14 10:03:39;;;;;;;6.85;6.35;;;;;;;14.87;100.00;100675.25;6019330;23;20030;-70
2022/10/14 10:06:10;;;;;;;6.72;6.25;;;;;;;14.89;100.00;100663.66;6071370;23;20573;-71
2022/10/14 10:08:40;;;;;;;6.90;6.32;;;;;;;14.88;100.00;100663.75;6040453;23;20125;-70
2022/10/14 10:11:12;;;;;;;6.43;6.03;;;;;;;14.99;100.00;100665.63;6017189;23;20034;-71
2022/10/14 10:13:45;;;;;;;7.03;6.28;;;;;;;15.04;100.00;100664.34;6071120;23;20631;-69
2022/10/14 10:16:19;;;;;;;;;;;;;;;15.22;100.00;100664.81;6034429;23;20044;-70
2022/10/14 10:18:45;;;;;;;6.63;6.13;;;;;;;15.09;100.00;100645.50;6062296;23;19921;-72
2022/10/14 10:21:19;;;;;;;7.65;6.80;;;;;;;14.75;100.00;100597.72;6024920;23;20034;-71
2022/10/14 10:24:16;;;;;;;14.85;6.60;;;;;;;15.04;100.00;100634.44;6068009;23;20095;-71
2022/10/14 10:26:42;;;;;;;7.38;6.78;;;;;;;15.20;100.00;100648.22;6036672;23;20018;-70
2022/10/14 10:29:23;;;;;;;7.00;6.45;;;;;;;14.94;100.00;100621.88;6039158;23;20038;-70
2022/10/14 10:32:01;;;;;;;7.13;6.53;;;;;;;15.14;100.00;100654.78;6068498;23;20029;-70
2022/10/14 10:34:27;;;;;;;6.25;5.85;;;;;;;15.15;100.00;100651.22;6036148;23;20030;-70
2022/10/14 10:37:03;;;;;;;7.28;6.75;;;;;;;14.85;100.00;100595.25;6060395;23;20601;-71
2022/10/14 10:39:43;;;;;;;7.25;6.65;;;;;;;14.90;100.00;100606.34;6034908;23;20528;-70
2022/10/14 10:42:23;;;;;;;6.63;6.13;;;;;;;15.05;100.00;100641.38;6030433;23;20054;-70
2022/10/14 10:45:00;;;;;;;6.80;6.30;;;;;;;14.84;100.00;100609.44;6054459;23;20042;-70
2022/10/14 10:47:40;;;;;;;6.18;5.78;;;;;;;15.05;100.00;100636.09;6029026;23;20038;-70
2022/10/14 10:50:26;;;;;;;6.50;5.97;;;;;;;15.03;100.00;100628.28;6054616;23;20018;-71
2022/10/14 10:53:02;;;;;;;7.25;6.65;;;;;;;15.02;100.00;100629.25;6027654;23;20026;-70
2022/10/14 10:55:38;;;;;;;6.93;6.32;;;;;;;15.02;100.00;100623.97;6016676;23;20030;-71
2022/10/14 10:58:13;;;;;;;6.80;6.30;;;;;;;15.04;100.00;100618.56;6052638;23;20015;-70
2022/10/14 11:01:25;;;;;;;6.93;6.03;;;;;;;14.92;100.00;100609.72;6066087;23;20625;-70
2022/10/14 11:04:13;;;;;;;6.60;6.10;;;;;;;15.03;100.00;100607.13;6039299;23;20108;-71
2022/10/14 11:13:33;;;;;;;7.00;6.30;;;;;;;15.07;100.00;100581.34;5976176;23;20029;-72
2022/10/14 11:16:16;;;;;;;6.90;6.30;;;;;;;15.22;100.00;100601.38;6014115;23;20031;-71
2022/10/14 11:18:49;;;;;;;6.90;6.40;;;;;;;15.33;100.00;100595.28;6051886;23;20030;-72
2022/10/14 11:21:46;;;;;;;7.28;6.68;;;;;;;15.28;100.00;100597.44;6031799;23;20034;-71
2022/10/14 11:24:45;;;;;;;6.63;6.15;;;;;;;14.87;100.00;100543.16;6032310;23;20030;-71
2022/10/14 11:27:27;;;;;;;7.20;6.55;;;;;;;15.25;100.00;100601.13;6040428;23;21489;-72
2022/10/14 11:30:21;;;;;;;7.18;6.63;;;;;;;15.12;100.00;100584.50;6033701;23;20087;-71
2022/10/14 11:33:12;;;;;;;7.25;6.55;;;;;;;15.24;100.00;100591.53;6066085;23;20088;-70
2022/10/14 11:35:53;;;;;;;7.22;6.60;;;;;;;15.39;100.00;100589.53;6015381;23;20112;-70
2022/10/14 11:38:50;;;;;;;6.93;6.40;;;;;;;15.39;100.00;100581.59;6064319;23;20019;-70
2022/10/14 11:41:38;;;;;;;6.78;6.38;;;;;;;15.37;100.00;100572.94;6041544;23;20015;-70
2022/10/14 11:44:11;;;;;;;7.38;6.68;;;;;;;15.05;100.00;100531.22;6035202;23;20113;-71